Time,TemperatureF,DewpointF,PressureIn,WindDirection,WindDirectionDegrees,WindSpeedMPH,WindSpeedGustMPH,Humidity,HourlyPrecipIn,Conditions,Clouds,dailyrainin,SoftwareType,DateUTC
2013-01-05 00:00:00,34.6,22.9,30.37,SSE,157,1.0,5.0,62,0.00,,SCT070,0.00,VWS V14.01,2013-01-05 06:00:00,
2013-01-05 00:05:00,34.6,22.9,30.37,SSE,157,0.0,2.0,62,0.00,,FEW070,0.00,VWS V14.01,2013-01-05 06:05:00,
2013-01-05 00:10:00,34.7,22.6,30.37,SSE,157,0.0,2.0,61,0.00,,FEW070,0.00,VWS V14.01,2013-01-05 06:10:00,
2013-01-05 00:15:00,34.9,22.8,30.37,SSE,161,0.0,2.0,61,0.00,,FEW070,0.00,VWS V14.01,2013-01-05 06:15:00,
2013-01-05 00:20:00,35.0,22.5,30.37,SSW,203,1.0,3.0,60,0.00,,FEW070,0.00,VWS V14.01,2013-01-05 06:20:00,
2013-01-05 00:25:00,35.2,22.7,30.37,SSW,208,0.0,5.0,60,0.00,,FEW070,0.00,VWS V14.01,2013-01-05 06:25:00,
2013-01-05 00:30:00,35.3,22.8,30.37,South,171,1.0,5.0,60,0.00,,FEW070,0.00,VWS V14.01,2013-01-05 06:30:00,
2013-01-05 00:35:00,35.5,23.0,30.37,SSE,158,1.0,5.0,60,0.00,,FEW070,0.00,VWS V14.01,2013-01-05 06:35:00,
2013-01-05 00:40:00,35.6,22.7,30.37,South,179,1.0,5.0,59,0.00,,FEW070,0.00,VWS V14.01,2013-01-05 06:40:00,
2013-01-05 00:45:00,35.8,22.9,30.37,South,184,1.0,5.0,59,0.00,,FEW070,0.00,VWS V14.01,2013-01-05 06:45:00,
2013-01-05 00:50:00,35.8,22.9,30.37,SSW,193,2.0,5.0,59,0.00,,FEW070,0.00,VWS V14.01,2013-01-05 06:50:00,
2013-01-05 00:55:00,35.9,23.0,30.37,SSE,160,1.0,5.0,59,0.00,,FEW070,0.00,VWS V14.01,2013-01-05 06:55:00,
2013-01-05 01:00:00,35.9,23.0,30.37,SSE,161,2.0,2.0,59,0.00,,OVC070,0.00,VWS V14.01,2013-01-05 07:00:00,
2013-01-05 01:05:00,35.9,22.6,30.37,South,171,2.0,5.0,58,0.00,,OVC070,0.00,VWS V14.01,2013-01-05 07:05:00,
2013-01-05 01:10:00,36.0,23.1,30.37,South,174,1.0,5.0,59,0.00,,OVC070,0.00,VWS V14.01,2013-01-05 07:10:00,
2013-01-05 01:16:00,36.0,22.7,30.36,South,169,0.0,5.0,58,0.00,,OVC070,0.00,VWS V14.01,2013-01-05 07:16:00,
2013-01-05 01:21:00,36.2,23.3,30.36,SSE,155,0.0,5.0,59,0.00,,OVC070,0.00,VWS V14.01,2013-01-05 07:21:00,
2013-01-05 01:26:00,36.2,23.3,30.36,SSE,158,1.0,5.0,59,0.00,,OVC070,0.00,VWS V14.01,2013-01-05 07:26:00,
2013-01-05 01:31:00,36.2,23.3,30.36,SSE,157,0.0,5.0,59,0.00,,OVC070,0.00,VWS V14.01,2013-01-05 07:31:00,
2013-01-05 01:36:00,36.2,23.3,30.36,South,169,0.0,5.0,59,0.00,,OVC070,0.00,VWS V14.01,2013-01-05 07:36:00,
2013-01-05 01:41:00,36.2,23.3,30.36,SSE,161,0.0,5.0,59,0.00,,OVC070,0.00,VWS V14.01,2013-01-05 07:41:00,
2013-01-05 01:46:00,36.2,23.7,30.36,SSE,164,0.0,5.0,60,0.00,,OVC070,0.00,VWS V14.01,2013-01-05 07:46:00,
2013-01-05 01:51:00,36.2,23.7,30.36,SSE,162,0.0,5.0,60,0.00,,OVC070,0.00,VWS V14.01,2013-01-05 07:51:00,
2013-01-05 01:56:00,36.3,23.4,30.36,SSE,165,0.0,5.0,59,0.00,,OVC070,0.00,VWS V14.01,2013-01-05 07:56:00,
2013-01-05 02:01:00,36.3,23.8,30.35,SSE,164,0.0,0.0,60,0.00,,-RA,0.00,VWS V14.01,2013-01-05 08:01:00,
2013-01-05 02:06:00,36.5,23.5,30.35,South,174,0.0,5.0,59,0.00,,-RA,0.00,VWS V14.01,2013-01-05 08:06:00,
2013-01-05 02:11:00,36.6,23.6,30.35,SSE,164,0.0,5.0,59,0.00,,-RA,0.00,VWS V14.01,2013-01-05 08:11:00,
2013-01-05 02:16:00,36.8,23.8,30.36,SSE,161,0.0,5.0,59,0.00,,-RA,0.00,VWS V14.01,2013-01-05 08:16:00,
2013-01-05 02:21:00,36.9,23.9,30.36,South,175,1.0,6.0,59,0.00,,-RA,0.00,VWS V14.01,2013-01-05 08:21:00,
2013-01-05 02:26:00,37.0,23.6,30.36,SSE,154,0.0,6.0,58,0.00,,-RA,0.00,VWS V14.01,2013-01-05 08:26:00,
2013-01-05 02:31:00,37.0,24.0,30.36,SE,145,0.0,6.0,59,0.00,,-RA,0.00,VWS V14.01,2013-01-05 08:31:00,
2013-01-05 02:36:00,36.9,24.3,30.36,SSE,150,0.0,6.0,60,0.00,,-RA,0.00,VWS V14.01,2013-01-05 08:36:00,
2013-01-05 02:41:00,36.9,23.9,30.36,SSE,151,0.0,6.0,59,0.00,,-RA,0.00,VWS V14.01,2013-01-05 08:41:00,
2013-01-05 02:46:00,36.8,24.2,30.36,SSE,155,0.0,6.0,60,0.00,,-RA,0.00,VWS V14.01,2013-01-05 08:46:00,
2013-01-05 02:52:00,36.8,24.2,30.36,SSW,193,1.0,6.0,60,0.00,,-RA,0.00,VWS V14.01,2013-01-05 08:52:00,
2013-01-05 02:57:00,36.9,24.3,30.36,SSE,157,3.0,6.0,60,0.00,,-RA,0.00,VWS V14.01,2013-01-05 08:57:00,
2013-01-05 03:02:00,37.2,24.6,30.36,SW,227,2.0,6.0,60,0.00,,-RA,0.00,VWS V14.01,2013-01-05 09:02:00,
2013-01-05 03:07:00,37.8,26.4,30.36,WSW,237,8.0,8.0,63,0.00,,-RA,0.00,VWS V14.01,2013-01-05 09:07:00,
2013-01-05 03:12:00,38.2,26.7,30.36,SW,226,8.0,8.0,63,0.00,,-RA,0.00,VWS V14.01,2013-01-05 09:12:00,
2013-01-05 03:17:00,38.5,27.4,30.36,SSW,212,5.0,10.0,64,0.00,,-RA,0.00,VWS V14.01,2013-01-05 09:17:00,
2013-01-05 03:22:00,38.6,28.6,30.36,SSW,199,5.0,12.0,67,0.00,,-RA,0.00,VWS V14.01,2013-01-05 09:22:00,
2013-01-05 03:27:00,38.6,28.6,30.36,SW,219,3.0,12.0,67,0.00,,-RA,0.00,VWS V14.01,2013-01-05 09:27:00,
2013-01-05 03:32:00,38.6,29.3,30.35,SW,215,7.0,12.0,69,0.00,,-RA,0.00,VWS V14.01,2013-01-05 09:32:00,
2013-01-05 03:37:00,38.5,29.6,30.35,South,169,1.0,12.0,70,0.00,,-RA,0.00,VWS V14.01,2013-01-05 09:37:00,
2013-01-05 03:42:00,38.5,29.9,30.35,SSE,165,5.0,12.0,71,0.00,,-RA,0.00,VWS V14.01,2013-01-05 09:42:00,
2013-01-05 03:47:00,38.3,30.1,30.34,SSW,209,3.0,12.0,72,0.00,,-RA,0.00,VWS V14.01,2013-01-05 09:47:00,
2013-01-05 03:52:00,38.3,30.1,30.34,SW,216,5.0,12.0,72,0.00,,-RA,0.00,VWS V14.01,2013-01-05 09:52:00,
2013-01-05 03:57:00,38.5,30.3,30.34,South,185,3.0,12.0,72,0.00,,-RA,0.00,VWS V14.01,2013-01-05 09:57:00,
2013-01-05 04:02:00,38.5,29.9,30.34,SSW,192,3.0,7.0,71,0.00,,OVC060,0.00,VWS V14.01,2013-01-05 10:02:00,
2013-01-05 04:07:00,38.6,30.7,30.34,SSW,210,5.0,8.0,73,0.00,,OVC060,0.00,VWS V14.01,2013-01-05 10:07:00,
2013-01-05 04:12:00,38.8,30.6,30.34,SSW,208,5.0,8.0,72,0.00,,OVC060,0.00,VWS V14.01,2013-01-05 10:12:00,
2013-01-05 04:17:00,38.8,30.6,30.34,SW,226,7.0,8.0,72,0.00,,OVC060,0.00,VWS V14.01,2013-01-05 10:17:00,
2013-01-05 04:22:00,38.8,30.9,30.34,SSW,195,6.0,8.0,73,0.00,,OVC060,0.00,VWS V14.01,2013-01-05 10:22:00,
2013-01-05 04:27:00,38.8,30.6,30.34,SW,216,3.0,10.0,72,0.00,,OVC060,0.00,VWS V14.01,2013-01-05 10:27:00,
2013-01-05 04:32:00,38.9,31.3,30.33,South,191,1.0,10.0,74,0.00,,OVC060,0.00,VWS V14.01,2013-01-05 10:32:00,
2013-01-05 04:38:00,38.9,31.0,30.33,SSW,195,10.0,10.0,73,0.00,,OVC060,0.00,VWS V14.01,2013-01-05 10:38:00,
2013-01-05 04:43:00,39.1,31.5,30.33,South,182,2.0,10.0,74,0.00,,OVC060,0.00,VWS V14.01,2013-01-05 10:43:00,
2013-01-05 04:48:00,39.1,31.5,30.33,SW,217,2.0,10.0,74,0.00,,OVC060,0.00,VWS V14.01,2013-01-05 10:48:00,
2013-01-05 04:53:00,39.1,31.2,30.33,SSW,213,1.0,10.0,73,0.00,,OVC060,0.00,VWS V14.01,2013-01-05 10:53:00,
2013-01-05 04:58:00,39.1,31.9,30.33,SSW,196,0.0,10.0,75,0.00,,OVC060,0.00,VWS V14.01,2013-01-05 10:58:00,
2013-01-05 05:03:00,39.1,32.2,30.33,SW,224,5.0,5.0,76,0.00,,OVC047,0.00,VWS V14.01,2013-01-05 11:03:00,
2013-01-05 05:08:00,39.1,31.5,30.33,SSW,199,3.0,5.0,74,0.00,,OVC047,0.00,VWS V14.01,2013-01-05 11:08:00,
2013-01-05 05:13:00,39.1,31.5,30.33,SSE,161,2.0,5.0,74,0.00,,OVC047,0.00,VWS V14.01,2013-01-05 11:13:00,
2013-01-05 05:18:00,38.9,31.3,30.33,South,179,1.0,5.0,74,0.00,,OVC047,0.00,VWS V14.01,2013-01-05 11:18:00,
2013-01-05 05:23:00,38.9,31.0,30.33,SE,144,2.0,5.0,73,0.00,,OVC047,0.00,VWS V14.01,2013-01-05 11:23:00,
2013-01-05 05:28:00,38.9,31.0,30.33,South,169,2.0,7.0,73,0.00,,OVC047,0.00,VWS V14.01,2013-01-05 11:28:00,
2013-01-05 05:33:00,38.9,31.0,30.32,SSW,196,0.0,7.0,73,0.00,,OVC047,0.00,VWS V14.01,2013-01-05 11:33:00,
2013-01-05 05:38:00,38.8,30.9,30.32,South,172,0.0,7.0,73,0.00,,OVC047,0.00,VWS V14.01,2013-01-05 11:38:00,
2013-01-05 05:43:00,38.8,30.9,30.32,SSE,162,6.0,7.0,73,0.00,,OVC047,0.00,VWS V14.01,2013-01-05 11:43:00,
2013-01-05 05:48:00,38.6,30.7,30.32,South,175,0.0,7.0,73,0.00,,OVC047,0.00,VWS V14.01,2013-01-05 11:48:00,
2013-01-05 05:53:00,38.6,30.7,30.32,East,86,0.0,7.0,73,0.00,,OVC047,0.00,VWS V14.01,2013-01-05 11:53:00,
2013-01-05 05:58:00,38.5,31.0,30.32,SSE,164,3.0,7.0,74,0.00,,OVC047,0.00,VWS V14.01,2013-01-05 11:58:00,
2013-01-05 06:04:00,38.3,30.8,30.32,SE,136,0.0,2.0,74,0.00,,OVC060,0.00,VWS V14.01,2013-01-05 12:04:00,
2013-01-05 06:09:00,38.2,30.7,30.32,SE,133,0.0,5.0,74,0.00,,OVC060,0.00,VWS V14.01,2013-01-05 12:09:00,
2013-01-05 06:14:00,37.9,30.0,30.32,SSE,161,0.0,5.0,73,0.00,,OVC060,0.00,VWS V14.01,2013-01-05 12:14:00,
2013-01-05 06:19:00,37.8,29.9,30.32,SSE,147,0.0,5.0,73,0.00,,OVC060,0.00,VWS V14.01,2013-01-05 12:19:00,
2013-01-05 06:24:00,37.5,29.3,30.32,SE,134,5.0,6.0,72,0.00,,OVC060,0.00,VWS V14.01,2013-01-05 12:24:00,
2013-01-05 06:29:00,37.3,29.1,30.32,ESE,113,1.0,6.0,72,0.00,,OVC060,0.00,VWS V14.01,2013-01-05 12:29:00,
2013-01-05 06:34:00,37.2,29.4,30.33,SSE,152,0.0,6.0,73,0.00,,OVC060,0.00,VWS V14.01,2013-01-05 12:34:00,
2013-01-05 06:39:00,37.0,28.5,30.33,SSE,147,0.0,8.0,71,0.00,,OVC060,0.00,VWS V14.01,2013-01-05 12:39:00,
2013-01-05 06:44:00,37.0,28.5,30.33,ESE,112,0.0,8.0,71,0.00,,OVC060,0.00,VWS V14.01,2013-01-05 12:44:00,
2013-01-05 06:49:00,37.0,28.8,30.33,SSE,151,0.0,8.0,72,0.00,,OVC060,0.00,VWS V14.01,2013-01-05 12:49:00,
2013-01-05 06:54:00,37.0,28.5,30.33,SE,141,0.0,8.0,71,0.00,,OVC060,0.00,VWS V14.01,2013-01-05 12:54:00,
2013-01-05 06:59:00,37.0,27.8,30.33,ESE,104,2.0,8.0,69,0.00,,OVC060,0.00,VWS V14.01,2013-01-05 12:59:00,
2013-01-05 07:04:00,37.0,28.1,30.32,SSE,148,3.0,3.0,70,0.00,,OVC060,0.00,VWS V14.01,2013-01-05 13:04:00,
2013-01-05 07:09:00,37.0,27.8,30.32,ESE,117,0.0,8.0,69,0.00,,OVC060,0.00,VWS V14.01,2013-01-05 13:09:00,
2013-01-05 07:14:00,36.9,27.7,30.32,SE,127,3.0,8.0,69,0.00,,OVC060,0.00,VWS V14.01,2013-01-05 13:14:00,
2013-01-05 07:19:00,36.9,27.7,30.32,SSE,150,0.0,8.0,69,0.00,,OVC060,0.00,VWS V14.01,2013-01-05 13:19:00,
2013-01-05 07:24:00,36.9,27.7,30.32,ESE,110,0.0,8.0,69,0.00,,OVC060,0.00,VWS V14.01,2013-01-05 13:24:00,
2013-01-05 07:29:00,37.0,27.8,30.33,SE,145,0.0,8.0,69,0.00,,OVC060,0.00,VWS V14.01,2013-01-05 13:29:00,
2013-01-05 07:34:00,37.0,27.8,30.33,SE,137,5.0,8.0,69,0.00,,OVC060,0.00,VWS V14.01,2013-01-05 13:34:00,
2013-01-05 07:39:00,37.2,27.6,30.33,SSE,155,0.0,8.0,68,0.00,,OVC060,0.00,VWS V14.01,2013-01-05 13:39:00,
2013-01-05 07:44:00,37.2,27.3,30.33,SSE,164,1.0,8.0,67,0.00,,OVC060,0.00,VWS V14.01,2013-01-05 13:44:00,
2013-01-05 07:50:00,37.2,27.6,30.33,SE,136,2.0,8.0,68,0.00,,OVC060,0.00,VWS V14.01,2013-01-05 13:50:00,
2013-01-05 07:55:00,37.2,27.6,30.33,SE,124,0.0,8.0,68,0.00,,OVC060,0.00,VWS V14.01,2013-01-05 13:55:00,
2013-01-05 08:00:00,37.2,27.6,30.33,SE,145,0.0,8.0,68,0.00,,OVC060,0.00,VWS V14.01,2013-01-05 14:00:00,
2013-01-05 08:05:00,37.2,27.6,30.33,SSE,158,5.0,6.0,68,0.00,,OVC041,0.00,VWS V14.01,2013-01-05 14:05:00,
2013-01-05 08:10:00,37.3,27.7,30.33,SE,144,0.0,6.0,68,0.00,,OVC041,0.00,VWS V14.01,2013-01-05 14:10:00,
2013-01-05 08:15:00,37.5,27.9,30.33,SE,143,0.0,7.0,68,0.00,,OVC041,0.00,VWS V14.01,2013-01-05 14:15:00,
2013-01-05 08:20:00,37.6,28.0,30.33,SSE,155,0.0,7.0,68,0.00,,OVC041,0.00,VWS V14.01,2013-01-05 14:20:00,
2013-01-05 08:25:00,37.6,27.6,30.33,SE,138,3.0,7.0,67,0.00,,OVC041,0.00,VWS V14.01,2013-01-05 14:25:00,
2013-01-05 08:30:00,37.8,28.2,30.33,SSE,154,0.0,7.0,68,0.00,,OVC041,0.00,VWS V14.01,2013-01-05 14:30:00,
2013-01-05 08:35:00,37.9,27.9,30.33,SSE,152,5.0,7.0,67,0.00,,OVC041,0.00,VWS V14.01,2013-01-05 14:35:00,
2013-01-05 08:40:00,38.0,28.0,30.33,South,188,1.0,10.0,67,0.00,,OVC041,0.00,VWS V14.01,2013-01-05 14:40:00,
2013-01-05 08:45:00,38.0,28.0,30.33,SSE,160,0.0,10.0,67,0.00,,OVC041,0.00,VWS V14.01,2013-01-05 14:45:00,
2013-01-05 08:50:00,38.0,28.0,30.33,SSE,164,0.0,10.0,67,0.00,,OVC041,0.00,VWS V14.01,2013-01-05 14:50:00,
2013-01-05 08:55:00,38.2,28.2,30.33,SSE,157,0.0,10.0,67,0.00,,OVC041,0.00,VWS V14.01,2013-01-05 14:55:00,
2013-01-05 09:00:00,38.3,28.3,30.33,South,178,2.0,10.0,67,0.00,,OVC025,0.00,VWS V14.01,2013-01-05 15:00:00,
2013-01-05 09:05:00,38.5,27.8,30.33,SSE,160,3.0,7.0,65,0.00,,OVC025,0.00,VWS V14.01,2013-01-05 15:05:00,
2013-01-05 09:10:00,38.9,28.1,30.33,South,176,2.0,7.0,65,0.00,,OVC025,0.00,VWS V14.01,2013-01-05 15:10:00,
2013-01-05 09:15:00,39.2,29.2,30.33,SSW,198,7.0,10.0,67,0.00,,OVC025,0.00,VWS V14.01,2013-01-05 15:15:00,
2013-01-05 09:20:00,39.5,29.1,30.33,South,191,5.0,10.0,66,0.00,,OVC025,0.00,VWS V14.01,2013-01-05 15:20:00,
2013-01-05 09:26:00,39.6,29.2,30.33,SSE,162,5.0,10.0,66,0.00,,OVC025,0.00,VWS V14.01,2013-01-05 15:26:00,
2013-01-05 09:31:00,39.8,28.6,30.32,South,175,5.0,10.0,64,0.00,,OVC025,0.00,VWS V14.01,2013-01-05 15:31:00,
2013-01-05 09:36:00,39.9,29.1,30.32,South,185,2.0,10.0,65,0.00,,OVC025,0.00,VWS V14.01,2013-01-05 15:36:00,
2013-01-05 09:41:00,40.1,29.7,30.32,SSW,195,2.0,10.0,66,0.00,,OVC025,0.00,VWS V14.01,2013-01-05 15:41:00,
2013-01-05 09:46:00,40.3,29.5,30.32,SSW,196,2.0,12.0,65,0.00,,OVC025,0.00,VWS V14.01,2013-01-05 15:46:00,
2013-01-05 09:51:00,40.8,29.2,30.32,SW,236,7.0,12.0,63,0.00,,OVC025,0.00,VWS V14.01,2013-01-05 15:51:00,
2013-01-05 09:56:00,41.3,30.4,30.32,South,182,5.0,14.0,65,0.00,,OVC025,0.00,VWS V14.01,2013-01-05 15:56:00,
2013-01-05 10:01:00,41.8,30.5,30.32,SSW,205,10.0,11.0,64,0.00,,OVC043,0.00,VWS V14.01,2013-01-05 16:01:00,
2013-01-05 10:06:00,42.2,30.5,30.32,SSE,161,7.0,13.0,63,0.00,,OVC043,0.00,VWS V14.01,2013-01-05 16:06:00,
2013-01-05 10:11:00,42.5,31.6,30.32,SSE,160,11.0,13.0,65,0.00,,OVC043,0.00,VWS V14.01,2013-01-05 16:11:00,
2013-01-05 10:16:00,42.6,31.3,30.32,WSW,241,3.0,13.0,64,0.00,,OVC043,0.00,VWS V14.01,2013-01-05 16:16:00,
2013-01-05 10:21:00,42.2,31.7,30.32,SW,220,8.0,13.0,66,0.00,,OVC043,0.00,VWS V14.01,2013-01-05 16:21:00,
2013-01-05 10:26:00,42.3,31.0,30.32,South,186,5.0,13.0,64,0.00,,OVC043,0.00,VWS V14.01,2013-01-05 16:26:00,
2013-01-05 10:31:00,42.2,31.7,30.31,South,189,2.0,13.0,66,0.00,,OVC043,0.00,VWS V14.01,2013-01-05 16:31:00,
2013-01-05 10:36:00,42.2,30.9,30.31,SW,220,10.0,13.0,64,0.00,,OVC043,0.00,VWS V14.01,2013-01-05 16:36:00,
2013-01-05 10:41:00,42.1,31.6,30.31,SW,232,12.0,16.0,66,0.00,,OVC043,0.00,VWS V14.01,2013-01-05 16:41:00,
2013-01-05 10:46:00,42.5,32.3,30.30,South,174,8.0,17.0,67,0.00,,OVC043,0.00,VWS V14.01,2013-01-05 16:46:00,
2013-01-05 10:51:00,42.8,31.9,30.30,South,191,7.0,17.0,65,0.00,,OVC043,0.00,VWS V14.01,2013-01-05 16:51:00,
2013-01-05 10:56:00,42.8,32.6,30.30,SSW,196,6.0,17.0,67,0.00,,OVC043,0.00,VWS V14.01,2013-01-05 16:56:00,
2013-01-05 11:01:00,42.9,32.7,30.30,South,182,7.0,12.0,67,0.00,,FEW025,0.00,VWS V14.01,2013-01-05 17:01:00,
2013-01-05 11:06:00,42.9,32.3,30.30,SSW,195,7.0,16.0,66,0.00,,FEW025,0.00,VWS V14.01,2013-01-05 17:06:00,
2013-01-05 11:12:00,43.5,32.5,30.30,SSW,212,5.0,16.0,65,0.00,,FEW025,0.00,VWS V14.01,2013-01-05 17:12:00,
2013-01-05 11:17:00,43.3,32.3,30.29,SSW,199,6.0,17.0,65,0.00,,FEW025,0.00,VWS V14.01,2013-01-05 17:17:00,
2013-01-05 11:22:00,43.6,32.2,30.29,South,188,6.0,17.0,64,0.00,,FEW025,0.00,VWS V14.01,2013-01-05 17:22:00,
2013-01-05 11:27:00,43.8,32.0,30.29,SSW,193,2.0,17.0,63,0.00,,FEW025,0.00,VWS V14.01,2013-01-05 17:27:00,
2013-01-05 11:32:00,43.6,31.9,30.29,SSW,208,7.0,17.0,63,0.00,,FEW025,0.00,VWS V14.01,2013-01-05 17:32:00,
2013-01-05 11:37:00,43.6,31.9,30.29,SSW,210,10.0,17.0,63,0.00,,FEW025,0.00,VWS V14.01,2013-01-05 17:37:00,
2013-01-05 11:42:00,43.5,32.2,30.29,SSW,193,8.0,17.0,64,0.00,,FEW025,0.00,VWS V14.01,2013-01-05 17:42:00,
2013-01-05 11:47:00,43.3,32.0,30.28,SSW,213,6.0,17.0,64,0.00,,FEW025,0.00,VWS V14.01,2013-01-05 17:47:00,
2013-01-05 11:52:00,43.5,32.2,30.28,South,172,6.0,17.0,64,0.00,,FEW025,0.00,VWS V14.01,2013-01-05 17:52:00,
2013-01-05 11:57:00,43.5,32.2,30.28,SSW,212,5.0,17.0,64,0.00,,FEW025,0.00,VWS V14.01,2013-01-05 17:57:00,
2013-01-05 12:02:00,43.5,31.8,30.27,SSW,212,7.0,12.0,63,0.00,,OVC030,0.00,VWS V14.01,2013-01-05 18:02:00,
2013-01-05 12:07:00,43.3,32.0,30.27,South,188,12.0,21.0,64,0.00,,OVC030,0.00,VWS V14.01,2013-01-05 18:07:00,
2013-01-05 12:12:00,43.2,31.5,30.27,South,185,11.0,21.0,63,0.00,,OVC030,0.00,VWS V14.01,2013-01-05 18:12:00,
2013-01-05 12:17:00,43.2,31.5,30.27,SW,230,10.0,21.0,63,0.00,,OVC030,0.00,VWS V14.01,2013-01-05 18:17:00,
2013-01-05 12:22:00,43.2,31.5,30.27,SSW,206,10.0,21.0,63,0.00,,OVC030,0.00,VWS V14.01,2013-01-05 18:22:00,
2013-01-05 12:27:00,43.2,31.1,30.27,SW,224,14.0,21.0,62,0.00,,OVC030,0.00,VWS V14.01,2013-01-05 18:27:00,
2013-01-05 12:32:00,43.2,31.1,30.26,SSW,205,12.0,21.0,62,0.00,,OVC030,0.00,VWS V14.01,2013-01-05 18:32:00,
2013-01-05 12:37:00,43.3,31.2,30.26,SSW,200,2.0,21.0,62,0.00,,OVC030,0.00,VWS V14.01,2013-01-05 18:37:00,
2013-01-05 12:43:00,43.5,31.4,30.26,SSW,199,7.0,21.0,62,0.00,,OVC030,0.00,VWS V14.01,2013-01-05 18:43:00,
2013-01-05 12:48:00,43.8,31.2,30.26,SW,220,5.0,21.0,61,0.00,,OVC030,0.00,VWS V14.01,2013-01-05 18:48:00,
2013-01-05 12:53:00,43.9,30.9,30.26,SW,223,2.0,21.0,60,0.00,,OVC030,0.00,VWS V14.01,2013-01-05 18:53:00,
2013-01-05 12:58:00,44.2,30.8,30.26,SW,227,2.0,21.0,59,0.00,,OVC030,0.00,VWS V14.01,2013-01-05 18:58:00,
2013-01-05 13:00:00,44.3,30.5,30.24,SSW,205,10.0,17.0,58,0.00,,OVC041CB,0.00,VWS V14.01,2013-01-05 19:00:00,
2013-01-05 13:03:00,44.5,30.2,30.25,SW,220,2.0,11.0,57,0.00,,OVC034,0.00,VWS V14.01,2013-01-05 19:03:00,
2013-01-05 13:08:00,44.2,30.4,30.25,SW,236,5.0,11.0,58,0.00,,OVC034,0.00,VWS V14.01,2013-01-05 19:08:00,
2013-01-05 13:13:00,43.9,30.5,30.25,SSW,193,0.0,12.0,59,0.00,,OVC034,0.00,VWS V14.01,2013-01-05 19:13:00,
2013-01-05 13:18:00,44.1,30.3,30.25,SW,216,3.0,12.0,58,0.00,,OVC034,0.00,VWS V14.01,2013-01-05 19:18:00,
2013-01-05 13:23:00,44.1,30.3,30.25,SW,234,2.0,12.0,58,0.00,,OVC034,0.00,VWS V14.01,2013-01-05 19:23:00,
2013-01-05 13:28:00,44.2,30.0,30.25,SSW,208,5.0,12.0,57,0.00,,OVC034,0.00,VWS V14.01,2013-01-05 19:28:00,
2013-01-05 13:33:00,44.2,30.4,30.24,SW,219,10.0,13.0,58,0.00,,OVC034,0.00,VWS V14.01,2013-01-05 19:33:00,
2013-01-05 13:38:00,44.5,30.7,30.24,SSE,148,6.0,13.0,58,0.00,,OVC034,0.00,VWS V14.01,2013-01-05 19:38:00,
2013-01-05 13:43:00,44.5,30.7,30.24,SSW,200,5.0,13.0,58,0.00,,OVC034,0.00,VWS V14.01,2013-01-05 19:43:00,
2013-01-05 13:48:00,44.3,30.9,30.24,SSW,210,8.0,13.0,59,0.00,,OVC034,0.00,VWS V14.01,2013-01-05 19:48:00,
2013-01-05 13:53:00,44.3,30.5,30.24,SW,223,6.0,17.0,58,0.00,,OVC034,0.00,VWS V14.01,2013-01-05 19:53:00,
2013-01-05 13:58:00,44.3,30.5,30.24,SSW,198,6.0,17.0,58,0.00,,OVC034,0.00,VWS V14.01,2013-01-05 19:58:00,
2013-01-05 14:03:00,44.5,30.7,30.24,SW,226,8.0,12.0,58,0.00,,OVC036,0.00,VWS V14.01,2013-01-05 20:03:00,
2013-01-05 14:08:00,44.3,30.5,30.24,South,175,6.0,13.0,58,0.00,,OVC036,0.00,VWS V14.01,2013-01-05 20:08:00,
2013-01-05 14:13:00,44.5,30.7,30.24,South,189,5.0,13.0,58,0.00,,OVC036,0.00,VWS V14.01,2013-01-05 20:13:00,
2013-01-05 14:18:00,44.5,31.1,30.24,South,184,7.0,13.0,59,0.00,,OVC036,0.00,VWS V14.01,2013-01-05 20:18:00,
2013-01-05 14:23:00,44.6,30.3,30.24,SSW,206,2.0,13.0,57,0.00,,OVC036,0.00,VWS V14.01,2013-01-05 20:23:00,
2013-01-05 14:28:00,44.8,30.1,30.24,SW,233,6.0,13.0,56,0.00,,OVC036,0.00,VWS V14.01,2013-01-05 20:28:00,
2013-01-05 14:33:00,44.9,30.6,30.23,WSW,254,1.0,13.0,57,0.00,,OVC036,0.00,VWS V14.01,2013-01-05 20:33:00,
2013-01-05 14:39:00,44.9,30.6,30.23,SSW,203,1.0,13.0,57,0.00,,OVC036,0.00,VWS V14.01,2013-01-05 20:39:00,
2013-01-05 14:44:00,44.9,31.0,30.23,SW,224,2.0,13.0,58,0.00,,OVC036,0.00,VWS V14.01,2013-01-05 20:44:00,
2013-01-05 14:49:00,45.4,31.1,30.23,SW,215,2.0,13.0,57,0.00,,OVC036,0.00,VWS V14.01,2013-01-05 20:49:00,
2013-01-05 14:54:00,45.7,30.5,30.23,South,184,3.0,13.0,55,0.00,,OVC036,0.00,VWS V14.01,2013-01-05 20:54:00,
2013-01-05 14:59:00,45.8,30.6,30.23,SW,232,2.0,13.0,55,0.00,,OVC036,0.00,VWS V14.01,2013-01-05 20:59:00,
2013-01-05 15:04:00,46.1,30.9,30.22,WSW,239,2.0,11.0,55,0.00,,BKN036,0.00,VWS V14.01,2013-01-05 21:04:00,
2013-01-05 15:09:00,47.0,30.8,30.22,SW,215,2.0,11.0,53,0.00,,BKN036,0.00,VWS V14.01,2013-01-05 21:09:00,
2013-01-05 15:14:00,46.8,30.1,30.22,SSW,205,8.0,14.0,52,0.00,,BKN036,0.00,VWS V14.01,2013-01-05 21:14:00,
2013-01-05 15:19:00,46.5,30.3,30.22,SW,216,7.0,14.0,53,0.00,,BKN036,0.00,VWS V14.01,2013-01-05 21:19:00,
2013-01-05 15:24:00,47.0,30.3,30.22,SW,224,2.0,14.0,52,0.00,,BKN036,0.00,VWS V14.01,2013-01-05 21:24:00,
2013-01-05 15:29:00,47.1,29.4,30.22,SSE,164,6.0,14.0,50,0.00,,BKN036,0.00,VWS V14.01,2013-01-05 21:29:00,
2013-01-05 15:34:00,47.0,30.3,30.23,SSW,206,1.0,14.0,52,0.00,,BKN036,0.00,VWS V14.01,2013-01-05 21:34:00,
2013-01-05 15:39:00,47.1,29.4,30.23,SW,226,3.0,14.0,50,0.00,,BKN036,0.00,VWS V14.01,2013-01-05 21:39:00,
2013-01-05 15:44:00,47.3,29.6,30.23,SSW,212,5.0,14.0,50,0.00,,BKN036,0.00,VWS V14.01,2013-01-05 21:44:00,
2013-01-05 15:49:00,47.4,29.7,30.22,WSW,246,0.0,14.0,50,0.00,,BKN036,0.00,VWS V14.01,2013-01-05 21:49:00,
2013-01-05 15:54:00,47.3,30.6,30.22,SSE,168,2.0,14.0,52,0.00,,BKN036,0.00,VWS V14.01,2013-01-05 21:54:00,
2013-01-05 15:59:00,47.3,30.1,30.22,SSW,195,3.0,14.0,51,0.00,,BKN036,0.00,VWS V14.01,2013-01-05 21:59:00,
2013-01-05 16:04:00,47.4,30.7,30.22,SSW,212,2.0,7.0,52,0.00,,CLR,0.00,VWS V14.01,2013-01-05 22:04:00,
2013-01-05 16:09:00,47.1,30.4,30.22,South,182,5.0,12.0,52,0.00,,CLR,0.00,VWS V14.01,2013-01-05 22:09:00,
2013-01-05 16:14:00,47.3,30.6,30.22,SSW,205,1.0,12.0,52,0.00,,CLR,0.00,VWS V14.01,2013-01-05 22:14:00,
2013-01-05 16:19:00,47.4,30.7,30.22,SSW,203,3.0,12.0,52,0.00,,CLR,0.00,VWS V14.01,2013-01-05 22:19:00,
2013-01-05 16:24:00,47.4,30.7,30.22,SSW,212,12.0,12.0,52,0.00,,CLR,0.00,VWS V14.01,2013-01-05 22:24:00,
2013-01-05 16:30:00,47.1,30.4,30.22,SW,219,10.0,12.0,52,0.00,,CLR,0.00,VWS V14.01,2013-01-05 22:30:00,
2013-01-05 16:35:00,47.1,30.9,30.22,WSW,239,1.0,12.0,53,0.00,,CLR,0.00,VWS V14.01,2013-01-05 22:35:00,
2013-01-05 16:40:00,47.1,30.4,30.22,SW,232,1.0,12.0,52,0.00,,CLR,0.00,VWS V14.01,2013-01-05 22:40:00,
2013-01-05 16:45:00,47.0,29.8,30.24,SSW,203,0.0,12.0,51,0.00,,CLR,0.00,VWS V14.01,2013-01-05 22:45:00,
2013-01-05 16:50:00,46.8,30.1,30.24,SSW,195,0.0,12.0,52,0.00,,CLR,0.00,VWS V14.01,2013-01-05 22:50:00,
2013-01-05 16:55:00,46.8,30.6,30.24,SW,223,0.0,12.0,53,0.00,,CLR,0.00,VWS V14.01,2013-01-05 22:55:00,
2013-01-05 17:00:00,46.7,30.5,30.24,SSW,209,0.0,12.0,53,0.00,,CLR,0.00,VWS V14.01,2013-01-05 23:00:00,
2013-01-05 17:05:00,46.4,30.7,30.24,SSW,213,0.0,2.0,54,0.00,,CLR,0.00,VWS V14.01,2013-01-05 23:05:00,
2013-01-05 17:10:00,46.1,30.4,30.24,SSW,213,0.0,2.0,54,0.00,,CLR,0.00,VWS V14.01,2013-01-05 23:10:00,
2013-01-05 17:15:00,45.8,30.6,30.24,SSW,213,0.0,2.0,55,0.00,,CLR,0.00,VWS V14.01,2013-01-05 23:15:00,
2013-01-05 17:20:00,45.5,30.3,30.24,SSW,213,0.0,2.0,55,0.00,,CLR,0.00,VWS V14.01,2013-01-05 23:20:00,
2013-01-05 17:25:00,45.4,30.2,30.24,SSW,213,0.0,2.0,55,0.00,,CLR,0.00,VWS V14.01,2013-01-05 23:25:00,
2013-01-05 17:30:00,45.1,29.9,30.24,SSW,213,0.0,2.0,55,0.00,,CLR,0.00,VWS V14.01,2013-01-05 23:30:00,
2013-01-05 17:35:00,44.6,29.5,30.24,SSW,213,0.0,2.0,55,0.00,,CLR,0.00,VWS V14.01,2013-01-05 23:35:00,
2013-01-05 17:40:00,44.2,29.5,30.24,SSW,213,0.0,2.0,56,0.00,,CLR,0.00,VWS V14.01,2013-01-05 23:40:00,
2013-01-05 17:45:00,43.5,29.3,30.25,SSW,213,0.0,2.0,57,0.00,,CLR,0.00,VWS V14.01,2013-01-05 23:45:00,
2013-01-05 17:50:00,43.1,29.3,30.25,SSW,213,0.0,2.0,58,0.00,,CLR,0.00,VWS V14.01,2013-01-05 23:50:00,
2013-01-05 17:55:00,42.8,29.5,30.25,SSW,213,0.0,2.0,59,0.00,,CLR,0.00,VWS V14.01,2013-01-05 23:55:00,
2013-01-05 18:00:00,42.5,29.2,30.26,SSW,213,0.0,2.0,59,0.00,,CLR,0.00,VWS V14.01,2013-01-06 00:00:00,
2013-01-05 18:05:00,42.2,29.3,30.26,SSW,213,0.0,0.0,60,0.00,,CLR,0.00,VWS V14.01,2013-01-06 00:05:00,
2013-01-05 18:10:00,42.1,29.6,30.26,SSW,213,0.0,0.0,61,0.00,,CLR,0.00,VWS V14.01,2013-01-06 00:10:00,
2013-01-05 18:15:00,41.8,29.8,30.27,SSW,213,0.0,0.0,62,0.00,,CLR,0.00,VWS V14.01,2013-01-06 00:15:00,
2013-01-05 18:20:00,41.5,29.5,30.27,SSW,213,0.0,0.0,62,0.00,,CLR,0.00,VWS V14.01,2013-01-06 00:20:00,
2013-01-05 18:25:00,41.2,29.6,30.27,SSW,213,0.0,0.0,63,0.00,,CLR,0.00,VWS V14.01,2013-01-06 00:25:00,
2013-01-05 18:30:00,40.9,29.7,30.27,SSW,213,0.0,0.0,64,0.00,,CLR,0.00,VWS V14.01,2013-01-06 00:30:00,
2013-01-05 18:36:00,40.6,29.4,30.27,SSW,213,0.0,0.0,64,0.00,,CLR,0.00,VWS V14.01,2013-01-06 00:36:00,
2013-01-05 18:41:00,40.6,30.1,30.27,SSW,213,0.0,0.0,66,0.00,,CLR,0.00,VWS V14.01,2013-01-06 00:41:00,
2013-01-05 18:46:00,40.5,30.0,30.28,SSW,213,0.0,0.0,66,0.00,,CLR,0.00,VWS V14.01,2013-01-06 00:46:00,
2013-01-05 18:51:00,40.1,29.7,30.28,SSW,213,0.0,0.0,66,0.00,,CLR,0.00,VWS V14.01,2013-01-06 00:51:00,
2013-01-05 18:56:00,39.8,29.8,30.28,SSW,213,0.0,0.0,67,0.00,,CLR,0.00,VWS V14.01,2013-01-06 00:56:00,
2013-01-05 19:01:00,39.3,29.3,30.29,SSW,213,0.0,0.0,67,0.00,,CLR,0.00,VWS V14.01,2013-01-06 01:01:00,
2013-01-05 19:06:00,39.1,29.1,30.29,SSW,213,0.0,0.0,67,0.00,,CLR,0.00,VWS V14.01,2013-01-06 01:06:00,
2013-01-05 19:11:00,38.6,29.0,30.29,SSW,213,0.0,0.0,68,0.00,,CLR,0.00,VWS V14.01,2013-01-06 01:11:00,
2013-01-05 19:16:00,38.6,29.3,30.29,SSW,213,0.0,0.0,69,0.00,,CLR,0.00,VWS V14.01,2013-01-06 01:16:00,
2013-01-05 19:21:00,38.8,30.2,30.29,SSW,213,0.0,0.0,71,0.00,,CLR,0.00,VWS V14.01,2013-01-06 01:21:00,
2013-01-05 19:26:00,38.8,30.2,30.29,SSW,213,0.0,0.0,71,0.00,,CLR,0.00,VWS V14.01,2013-01-06 01:26:00,
2013-01-05 19:31:00,38.5,29.9,30.29,SSW,213,0.0,0.0,71,0.00,,CLR,0.00,VWS V14.01,2013-01-06 01:31:00,
2013-01-05 19:36:00,38.3,29.7,30.29,SSW,213,0.0,0.0,71,0.00,,CLR,0.00,VWS V14.01,2013-01-06 01:36:00,
2013-01-05 19:41:00,38.0,29.5,30.29,SSW,213,0.0,0.0,71,0.00,,CLR,0.00,VWS V14.01,2013-01-06 01:41:00,
2013-01-05 19:46:00,38.0,29.8,30.29,SSW,213,0.0,0.0,72,0.00,,CLR,0.00,VWS V14.01,2013-01-06 01:46:00,
2013-01-05 19:51:00,38.0,30.1,30.29,SSW,213,0.0,0.0,73,0.00,,CLR,0.00,VWS V14.01,2013-01-06 01:51:00,
2013-01-05 19:56:00,38.3,30.4,30.29,SSW,213,0.0,0.0,73,0.00,,CLR,0.00,VWS V14.01,2013-01-06 01:56:00,
2013-01-05 20:01:00,38.6,30.7,30.28,SSW,213,0.0,0.0,73,0.00,,CLR,0.00,VWS V14.01,2013-01-06 02:01:00,
2013-01-05 20:06:00,38.6,30.4,30.28,SSW,213,0.0,0.0,72,0.00,,CLR,0.00,VWS V14.01,2013-01-06 02:06:00,
2013-01-05 20:11:00,38.6,30.4,30.28,SSW,213,0.0,0.0,72,0.00,,CLR,0.00,VWS V14.01,2013-01-06 02:11:00,
2013-01-05 20:17:00,38.3,30.1,30.27,SSW,213,0.0,0.0,72,0.00,,CLR,0.00,VWS V14.01,2013-01-06 02:17:00,
2013-01-05 20:22:00,38.3,30.1,30.27,SSW,203,0.0,0.0,72,0.00,,CLR,0.00,VWS V14.01,2013-01-06 02:22:00,
2013-01-05 20:27:00,38.2,30.0,30.27,SSW,203,0.0,0.0,72,0.00,,CLR,0.00,VWS V14.01,2013-01-06 02:27:00,
2013-01-05 20:32:00,38.0,29.8,30.27,SSW,203,0.0,0.0,72,0.00,,CLR,0.00,VWS V14.01,2013-01-06 02:32:00,
2013-01-05 20:37:00,37.8,29.6,30.27,SSW,203,0.0,0.0,72,0.00,,CLR,0.00,VWS V14.01,2013-01-06 02:37:00,
2013-01-05 20:42:00,37.8,29.9,30.27,SSW,203,0.0,0.0,73,0.00,,CLR,0.00,VWS V14.01,2013-01-06 02:42:00,
2013-01-05 20:47:00,37.6,29.7,30.28,SSW,203,0.0,0.0,73,0.00,,CLR,0.00,VWS V14.01,2013-01-06 02:47:00,
2013-01-05 20:52:00,37.3,29.5,30.28,SSW,203,0.0,1.0,73,0.00,,CLR,0.00,VWS V14.01,2013-01-06 02:52:00,
2013-01-05 20:57:00,37.3,29.8,30.28,SSW,203,0.0,1.0,74,0.00,,CLR,0.00,VWS V14.01,2013-01-06 02:57:00,
2013-01-05 21:02:00,37.0,29.5,30.28,SSW,203,0.0,0.0,74,0.00,,CLR,0.00,VWS V14.01,2013-01-06 03:02:00,
2013-01-05 21:07:00,36.9,29.7,30.28,SSW,203,0.0,0.0,75,0.00,,CLR,0.00,VWS V14.01,2013-01-06 03:07:00,
2013-01-05 21:12:00,36.6,29.4,30.28,SSW,203,0.0,0.0,75,0.00,,CLR,0.00,VWS V14.01,2013-01-06 03:12:00,
2013-01-05 21:17:00,36.6,29.4,30.28,SSW,202,0.0,2.0,75,0.00,,CLR,0.00,VWS V14.01,2013-01-06 03:17:00,
2013-01-05 21:22:00,36.6,29.8,30.28,SSW,202,0.0,2.0,76,0.00,,CLR,0.00,VWS V14.01,2013-01-06 03:22:00,
2013-01-05 21:27:00,36.6,29.8,30.28,SSW,202,0.0,2.0,76,0.00,,CLR,0.00,VWS V14.01,2013-01-06 03:27:00,
2013-01-05 21:32:00,36.6,29.8,30.29,SSW,192,1.0,2.0,76,0.00,,CLR,0.00,VWS V14.01,2013-01-06 03:32:00,
2013-01-05 21:37:00,36.8,30.0,30.29,South,182,0.0,2.0,76,0.00,,CLR,0.00,VWS V14.01,2013-01-06 03:37:00,
2013-01-05 21:42:00,36.8,30.3,30.29,South,178,0.0,2.0,77,0.00,,CLR,0.00,VWS V14.01,2013-01-06 03:42:00,
2013-01-05 21:47:00,36.9,30.4,30.29,South,179,0.0,2.0,77,0.00,,CLR,0.00,VWS V14.01,2013-01-06 03:47:00,
2013-01-05 21:52:00,36.9,30.4,30.29,South,179,0.0,2.0,77,0.00,,CLR,0.00,VWS V14.01,2013-01-06 03:52:00,
2013-01-05 21:57:00,37.0,30.1,30.29,South,178,2.0,2.0,76,0.00,,CLR,0.00,VWS V14.01,2013-01-06 03:57:00,
2013-01-05 22:02:00,37.0,30.1,30.29,South,175,1.0,2.0,76,0.00,,CLR,0.00,VWS V14.01,2013-01-06 04:02:00,
2013-01-05 22:07:00,37.0,30.1,30.29,South,176,0.0,2.0,76,0.00,,CLR,0.00,VWS V14.01,2013-01-06 04:07:00,
2013-01-05 22:12:00,37.0,30.1,30.29,South,176,0.0,2.0,76,0.00,,CLR,0.00,VWS V14.01,2013-01-06 04:12:00,
2013-01-05 22:18:00,36.9,30.0,30.29,South,176,1.0,2.0,76,0.00,,CLR,0.00,VWS V14.01,2013-01-06 04:18:00,
2013-01-05 22:23:00,36.8,30.0,30.29,South,175,0.0,2.0,76,0.00,,CLR,0.00,VWS V14.01,2013-01-06 04:23:00,
2013-01-05 22:28:00,36.6,29.8,30.29,South,176,0.0,2.0,76,0.00,,CLR,0.00,VWS V14.01,2013-01-06 04:28:00,
2013-01-05 22:33:00,36.5,29.7,30.30,South,176,0.0,2.0,76,0.00,,CLR,0.00,VWS V14.01,2013-01-06 04:33:00,
2013-01-05 22:38:00,36.2,29.4,30.30,South,175,0.0,2.0,76,0.00,,CLR,0.00,VWS V14.01,2013-01-06 04:38:00,
2013-01-05 22:43:00,35.9,29.1,30.30,South,178,0.0,2.0,76,0.00,,CLR,0.00,VWS V14.01,2013-01-06 04:43:00,
2013-01-05 22:48:00,35.8,29.3,30.31,South,178,0.0,2.0,77,0.00,,CLR,0.00,VWS V14.01,2013-01-06 04:48:00,
2013-01-05 22:53:00,35.6,29.4,30.31,South,181,0.0,3.0,78,0.00,,CLR,0.00,VWS V14.01,2013-01-06 04:53:00,
2013-01-05 22:58:00,35.6,29.4,30.31,South,181,0.0,3.0,78,0.00,,CLR,0.00,VWS V14.01,2013-01-06 04:58:00,
2013-01-05 23:00:00,35.6,29.4,30.31,South,179,0.0,3.0,78,0.00,,CLR,0.00,VWS V14.01,2013-01-06 05:00:00,
2013-01-05 23:03:00,35.5,29.3,30.31,South,181,0.0,2.0,78,0.00,,CLR,0.00,VWS V14.01,2013-01-06 05:03:00,
2013-01-05 23:05:00,35.5,29.3,30.31,South,179,0.0,2.0,78,0.00,,CLR,0.00,VWS V14.01,2013-01-06 05:05:00,
2013-01-05 23:08:00,35.3,29.1,30.31,South,179,0.0,2.0,78,0.00,,CLR,0.00,VWS V14.01,2013-01-06 05:08:00,
2013-01-05 23:13:00,34.9,28.8,30.31,South,179,0.0,2.0,78,0.00,,CLR,0.00,VWS V14.01,2013-01-06 05:13:00,
2013-01-05 23:18:00,34.6,28.1,30.31,South,181,0.0,2.0,77,0.00,,CLR,0.00,VWS V14.01,2013-01-06 05:18:00,
2013-01-05 23:23:00,34.1,27.7,30.31,South,179,0.0,2.0,77,0.00,,CLR,0.00,VWS V14.01,2013-01-06 05:23:00,
2013-01-05 23:28:00,33.8,27.7,30.31,South,181,0.0,2.0,78,0.00,,CLR,0.00,VWS V14.01,2013-01-06 05:28:00,
2013-01-05 23:33:00,33.7,28.2,30.32,South,179,0.0,2.0,80,0.00,,CLR,0.00,VWS V14.01,2013-01-06 05:33:00,
2013-01-05 23:38:00,34.0,28.8,30.32,South,181,0.0,2.0,81,0.00,,CLR,0.00,VWS V14.01,2013-01-06 05:38:00,
2013-01-05 23:43:00,33.8,28.6,30.32,South,181,0.0,2.0,81,0.00,,CLR,0.00,VWS V14.01,2013-01-06 05:43:00,
2013-01-05 23:48:00,33.7,28.2,30.32,South,181,0.0,2.0,80,0.00,,CLR,0.00,VWS V14.01,2013-01-06 05:48:00,
2013-01-05 23:53:00,33.5,28.0,30.32,South,181,0.0,2.0,80,0.00,,CLR,0.00,VWS V14.01,2013-01-06 05:53:00,
2013-01-05 23:59:00,33.1,27.6,30.32,South,179,0.0,2.0,80,0.00,,CLR,0.00,VWS V14.01,2013-01-06 05:59:00,